Weer

Current Metar

EHAM: EHAM 231125Z 20025KT 4500 RADZ SCT008 OVC018 09/08 Q0988 RERA REDZ BECMG 9999 NSW
EHRD: EHRD 231125Z AUTO 20023G34KT 170V230 3200 -SHRA SCT007 BKN008 OVC010 09/08 Q0990 BECMG 9999 BKN015
EHGG: EHGG 231125Z AUTO 20019G30KT 3200 -RADZ FEW007 BKN008 BKN010 09/08 Q0988 RERA REDZ TEMPO 6000 BKN012
EHEH: EHEH 231125Z AUTO 20021G32KT 170V230 9999 -RADZ FEW013 BKN016 OVC020 10/08 Q0994 WHT 22020G35KT 9999 BKN012 OVC015 TEMPO 3000 -RADZ SCT005 BKN008 OVC010
EHBK: EHBK 231125Z AUTO 22026KT 190V250 5000 BR SCT009 BKN010 OVC012 08/07 Q0997 TEMPO 5000 -RA BKN012

Search METAR


Wind Charts

+ 0600h
FL100 FL180 FL240 FL300 FL340

+ 1200h
FL100 FL180 FL240 FL300 FL340

+ 1800h
FL100 FL180 FL240 FL300 FL340

+ 2400h
FL100 FL180 FL240 FL300 FL340

Europe & Africa charts only, updated daily.

 

Weather Services

MET Office